Nearby METAR Reports

 

KSJC - San Jose, California, USA
Distance from station: NO 14km
Uppdaterad: 28/09/2022 07:53
Klart
Klart
 Vind frn NNV
Vind: NNV 15 km/h
Temperatur: 17°C
Daggpunkt: 13°C
Luftfuktighet: 77%
Barometer: 1016.3 hPa
Clouds: Klart
Visibility: 16 km
2022/09/28 05:53 KSJC 280553Z 33008KT 10SM CLR 17/13 A3001 RMK AO2 SLP160 T01670133 10222 20167 51013
KNUQ - Moffett Nas/Mtn, California, USA
Distance from station: N 14km
Uppdaterad: 28/09/2022 08:15
Klart
Klart
 Vind frn calm
Vind: Vindstilla
Temperatur: 15°C
Daggpunkt: 12°C
Luftfuktighet: 82%
Barometer: 1016.3 hPa
Clouds: Klart
Visibility: 16 km
2022/09/28 06:15 KNUQ 280615Z AUTO 00000KT 10SM CLR 15/12 A3001 RMK AO2
 
KPAO - Palo Alto, California, USA
Distance from station: NNV 23km
Uppdaterad: 28/09/2022 01:47
NOT Current
Klart
Klart
 Vind frn NNV
Vind: NNV 19 km/h
Temperatur: 20°C
Daggpunkt: 13°C
Luftfuktighet: 64%
Barometer: 1014.9 hPa
Clouds: Klart
Visibility: 16 km
2022/09/27 23:47 KPAO 272347Z 33010KT 10SM SKC 20/13 A2997
KRHV - San Jose/Reid, California, USA
Distance from station: ONO 19km
Uppdaterad: 28/09/2022 06:47
NOT Current
Klart
Klart
 Vind frn VNV
Vind: VNV 7 km/h
Temperatur: 17°C
Daggpunkt: 13°C
Luftfuktighet: 77%
Barometer: 1015.9 hPa
Clouds: Klart
Visibility: 16 km
2022/09/28 04:47 KRHV 280447Z 30004KT 10SM SKC 17/13 A3000 RMK LAST
 
KOAK - Oakland, California, USA
Distance from station: NNV 50km
Uppdaterad: 28/09/2022 07:53
Few Clouds
Few Clouds
 Vind frn V
Vind: V 13 km/h
Temperatur: 16°C
Daggpunkt: 13°C
Luftfuktighet: 83%
Barometer: 1015.9 hPa
Clouds: Few Clouds
Visibility: 16 km
Cloud details: Few Clouds 305 m
Few Clouds 7620 m
2022/09/28 05:53 KOAK 280553Z 28007KT 10SM FEW010 FEW250 16/13 A3000 RMK AO2 SLP160 T01560128 10200 20156 51010
KSQL - San Carlos Airpo, California, USA
Distance from station: NV 34km
Uppdaterad: 28/09/2022 08:15
Klart
Klart
 Vind frn calm
Vind: Vindstilla
Temperatur: 15°C
Daggpunkt: 12°C
Luftfuktighet: 82%
Barometer: 1016.6 hPa
Clouds: Klart
Visibility: 16 km
2022/09/28 06:15 KSQL 280615Z AUTO 00000KT 10SM CLR 15/12 A3002 RMK AO2
 
KSFO - San Francisco, California, USA
Distance from station: NV 49km
Uppdaterad: 28/09/2022 07:56
Few Clouds
Few Clouds
 Vind frn V
Vind: V 22 km/h
Temperatur: 16°C
Daggpunkt: 13°C
Luftfuktighet: 83%
Barometer: 1015.9 hPa
Clouds: Few Clouds
Visibility: 16 km
Cloud details: Few Clouds 274 m
Few Clouds 6096 m
2022/09/28 05:56 KSFO 280556Z 27012KT 10SM FEW009 FEW200 16/13 A3000 RMK AO2 SLP159 T01560128 10183 20150 51011
KE16 - San Martin, California, USA
Distance from station: OSO 43km
Uppdaterad: 28/09/2022 08:15
Klart
Klart
 Vind frn NNV
Vind: NNV 13 km/h
Temperatur: 17°C
Daggpunkt: 13°C
Luftfuktighet: 77%
Barometer: 1016.3 hPa
Clouds: Klart
Visibility: 16 km
2022/09/28 06:15 KE16 280615Z AUTO 33007KT 10SM CLR 17/13 A3001 RMK AO2 PWINO PNO
 
KWVI - Watsonville, California, USA
Distance from station: SSO 44km
Uppdaterad: 28/09/2022 07:53
Klart
Klart
 Vind frn calm
Vind: Vindstilla
Temperatur: 13°C
Daggpunkt: 12°C
Luftfuktighet: 94%
Barometer: 1015.6 hPa
Clouds: Klart
Visibility: 16 km
2022/09/28 05:53 KWVI 280553Z AUTO 00000KT 10SM CLR 13/12 A2999 RMK AO2 SLP155 T01280122 10206 20128 51008
KHAF - Half Moon Bay, California, USA
Distance from station: VNV 50km
Uppdaterad: 28/09/2022 08:15
vervgande molnigt
vervgande molnigt
 Vind frn NNV
Vind: NNV 13 km/h
Temperatur: 15°C
Daggpunkt: 14°C
Luftfuktighet: 94%
Barometer: 1016.6 hPa
Clouds: vervgande molnigt
Visibility: 14 km
Cloud details: vervgande molnigt 396 m
2022/09/28 06:15 KHAF 280615Z AUTO 34007KT 9SM BKN013 15/14 A3002 RMK AO2
 
KHWD - Hayward, California, USA
Distance from station: N 44km
Uppdaterad: 28/09/2022 07:54
Klart
Klart
 Vind frn VNV
Vind: VNV 6 km/h
Temperatur: 15°C
Daggpunkt: 13°C
Luftfuktighet: 88%
Barometer: 1015.9 hPa
Clouds: Klart
Visibility: 16 km
2022/09/28 05:54 KHWD 280554Z 30003KT 10SM CLR 15/13 A3000 RMK AO2 SLP169 T01500133 10206 20150 51012
KLVK - Livermore, California, USA
Distance from station: NNO 51km
Uppdaterad: 28/09/2022 07:53
Klart
Klart
 Vind frn VNV
Vind: VNV 9 km/h
Temperatur: 16°C
Daggpunkt: 12°C
Luftfuktighet: 77%
Barometer: 1015.6 hPa
Clouds: Klart
Visibility: 16 km
2022/09/28 05:53 KLVK 280553Z AUTO 30005KT 10SM CLR 16/12 A2999 RMK AO2 SLP152 T01560122 10261 20156 51016